Terminal Aerodrome Forecast
Issued by NWS Huntsville, AL

Home | Current Version | Previous Version | Text Only | Print | Product List | Glossary On
Versions: 1 2 3 4 5 6 7 8 9 10 11 12 13 14
000
FTUS44 KHUN 061133
TAFHSV
TAF
KHSV 061133Z 0612/0712 11007KT 6SM -SHRA BR SCT005 OVC025
      TEMPO 0612/0614 BKN005
     FM061400 26010KT 6SM BR VCSH SCT005 OVC010
     FM061800 31012KT P6SM OVC015
     FM070000 35007KT P6SM OVC009=

USA.gov is the U.S. government's official web portal to all federal, state and local government web resources and services.